sensor_id;sensor_type;location;lat;lon;timestamp;P1;durP1;ratioP1;P2;durP2;ratioP2
59504;SDS011;45321;53.200;5.814;2024-01-30T00:01:52;25.42;;;21.02;;
59504;SDS011;45321;53.200;5.814;2024-01-30T00:04:17;26.20;;;21.90;;
59504;SDS011;45321;53.200;5.814;2024-01-30T00:06:43;28.02;;;21.65;;
59504;SDS011;45321;53.200;5.814;2024-01-30T00:09:09;28.30;;;22.73;;
59504;SDS011;45321;53.200;5.814;2024-01-30T00:11:36;30.17;;;22.13;;
59504;SDS011;45321;53.200;5.814;2024-01-30T00:14:02;31.15;;;23.67;;
59504;SDS011;45321;53.200;5.814;2024-01-30T00:16:28;28.33;;;23.42;;
59504;SDS011;45321;53.200;5.814;2024-01-30T00:18:54;29.13;;;23.27;;
59504;SDS011;45321;53.200;5.814;2024-01-30T00:21:20;28.90;;;23.13;;
59504;SDS011;45321;53.200;5.814;2024-01-30T00:23:46;30.90;;;23.08;;
59504;SDS011;45321;53.200;5.814;2024-01-30T00:26:12;30.10;;;23.73;;
59504;SDS011;45321;53.200;5.814;2024-01-30T00:28:40;26.40;;;22.27;;
59504;SDS011;45321;53.200;5.814;2024-01-30T00:31:09;27.13;;;21.98;;
59504;SDS011;45321;53.200;5.814;2024-01-30T00:33:37;30.20;;;22.95;;
59504;SDS011;45321;53.200;5.814;2024-01-30T00:36:04;29.48;;;22.63;;
59504;SDS011;45321;53.200;5.814;2024-01-30T00:38:31;30.33;;;22.52;;
59504;SDS011;45321;53.200;5.814;2024-01-30T00:40:57;49.13;;;33.55;;
59504;SDS011;45321;53.200;5.814;2024-01-30T00:43:23;52.00;;;33.50;;
59504;SDS011;45321;53.200;5.814;2024-01-30T00:45:50;34.40;;;26.52;;
59504;SDS011;45321;53.200;5.814;2024-01-30T00:48:17;36.65;;;27.40;;
59504;SDS011;45321;53.200;5.814;2024-01-30T00:50:43;35.42;;;24.48;;
59504;SDS011;45321;53.200;5.814;2024-01-30T00:53:09;26.40;;;22.95;;
59504;SDS011;45321;53.200;5.814;2024-01-30T00:55:35;31.48;;;23.00;;
59504;SDS011;45321;53.200;5.814;2024-01-30T00:58:00;31.33;;;22.63;;
59504;SDS011;45321;53.200;5.814;2024-01-30T01:00:26;29.52;;;22.48;;
59504;SDS011;45321;53.200;5.814;2024-01-30T01:02:57;27.20;;;22.95;;
59504;SDS011;45321;53.200;5.814;2024-01-30T01:05:26;28.50;;;23.08;;
59504;SDS011;45321;53.200;5.814;2024-01-30T01:07:52;27.55;;;22.45;;
59504;SDS011;45321;53.200;5.814;2024-01-30T01:10:18;30.88;;;23.27;;
59504;SDS011;45321;53.200;5.814;2024-01-30T01:12:44;28.65;;;22.90;;
59504;SDS011;45321;53.200;5.814;2024-01-30T01:15:10;29.60;;;23.35;;
59504;SDS011;45321;53.200;5.814;2024-01-30T01:17:39;27.55;;;22.67;;
59504;SDS011;45321;53.200;5.814;2024-01-30T01:20:06;30.02;;;24.40;;
59504;SDS011;45321;53.200;5.814;2024-01-30T01:22:32;28.38;;;22.85;;
59504;SDS011;45321;53.200;5.814;2024-01-30T01:24:59;29.58;;;23.45;;
59504;SDS011;45321;53.200;5.814;2024-01-30T01:27:25;28.85;;;22.33;;
59504;SDS011;45321;53.200;5.814;2024-01-30T01:29:51;32.90;;;22.83;;
59504;SDS011;45321;53.200;5.814;2024-01-30T01:32:17;30.95;;;23.33;;
59504;SDS011;45321;53.200;5.814;2024-01-30T01:34:43;26.42;;;22.20;;
59504;SDS011;45321;53.200;5.814;2024-01-30T01:37:09;32.38;;;24.00;;
59504;SDS011;45321;53.200;5.814;2024-01-30T01:39:35;31.35;;;23.85;;
59504;SDS011;45321;53.200;5.814;2024-01-30T01:42:01;28.45;;;23.13;;
59504;SDS011;45321;53.200;5.814;2024-01-30T01:44:27;27.17;;;22.60;;
59504;SDS011;45321;53.200;5.814;2024-01-30T01:46:53;29.42;;;23.42;;
59504;SDS011;45321;53.200;5.814;2024-01-30T01:49:20;33.30;;;25.48;;
59504;SDS011;45321;53.200;5.814;2024-01-30T01:51:46;30.98;;;23.88;;
59504;SDS011;45321;53.200;5.814;2024-01-30T01:54:13;30.48;;;24.20;;
59504;SDS011;45321;53.200;5.814;2024-01-30T01:56:40;31.83;;;25.00;;
59504;SDS011;45321;53.200;5.814;2024-01-30T01:59:07;31.80;;;24.52;;
59504;SDS011;45321;53.200;5.814;2024-01-30T02:01:34;31.23;;;24.58;;
59504;SDS011;45321;53.200;5.814;2024-01-30T02:04:03;31.33;;;24.13;;
59504;SDS011;45321;53.200;5.814;2024-01-30T02:06:29;34.53;;;25.83;;
59504;SDS011;45321;53.200;5.814;2024-01-30T02:08:55;35.33;;;24.40;;
59504;SDS011;45321;53.200;5.814;2024-01-30T02:11:21;30.95;;;23.35;;
59504;SDS011;45321;53.200;5.814;2024-01-30T02:13:48;34.03;;;25.52;;
59504;SDS011;45321;53.200;5.814;2024-01-30T02:16:15;33.67;;;25.40;;
59504;SDS011;45321;53.200;5.814;2024-01-30T02:18:42;29.27;;;23.65;;
59504;SDS011;45321;53.200;5.814;2024-01-30T02:21:11;29.15;;;24.15;;
59504;SDS011;45321;53.200;5.814;2024-01-30T02:23:37;28.08;;;23.08;;
59504;SDS011;45321;53.200;5.814;2024-01-30T02:26:04;30.00;;;22.60;;
59504;SDS011;45321;53.200;5.814;2024-01-30T02:28:30;29.95;;;23.60;;
59504;SDS011;45321;53.200;5.814;2024-01-30T02:30:56;28.75;;;23.73;;
59504;SDS011;45321;53.200;5.814;2024-01-30T02:33:21;35.17;;;23.92;;
59504;SDS011;45321;53.200;5.814;2024-01-30T02:35:47;30.52;;;24.20;;
59504;SDS011;45321;53.200;5.814;2024-01-30T02:38:13;29.70;;;23.70;;
59504;SDS011;45321;53.200;5.814;2024-01-30T02:40:40;29.10;;;23.35;;
59504;SDS011;45321;53.200;5.814;2024-01-30T02:43:06;31.60;;;23.13;;
59504;SDS011;45321;53.200;5.814;2024-01-30T02:45:31;29.65;;;23.90;;
59504;SDS011;45321;53.200;5.814;2024-01-30T02:47:57;33.28;;;23.10;;
59504;SDS011;45321;53.200;5.814;2024-01-30T02:50:23;29.38;;;23.40;;
59504;SDS011;45321;53.200;5.814;2024-01-30T02:52:49;30.60;;;23.08;;
59504;SDS011;45321;53.200;5.814;2024-01-30T02:55:14;30.83;;;22.98;;
59504;SDS011;45321;53.200;5.814;2024-01-30T02:57:43;28.92;;;23.58;;
59504;SDS011;45321;53.200;5.814;2024-01-30T03:00:10;30.58;;;23.35;;
59504;SDS011;45321;53.200;5.814;2024-01-30T03:02:36;28.77;;;22.55;;
59504;SDS011;45321;53.200;5.814;2024-01-30T03:05:02;31.02;;;23.80;;
59504;SDS011;45321;53.200;5.814;2024-01-30T03:07:29;31.48;;;23.23;;
59504;SDS011;45321;53.200;5.814;2024-01-30T03:09:54;33.83;;;22.70;;
59504;SDS011;45321;53.200;5.814;2024-01-30T03:12:21;29.55;;;22.30;;
59504;SDS011;45321;53.200;5.814;2024-01-30T03:14:46;29.60;;;22.58;;
59504;SDS011;45321;53.200;5.814;2024-01-30T03:17:12;26.80;;;22.05;;
59504;SDS011;45321;53.200;5.814;2024-01-30T03:19:38;31.25;;;23.60;;
59504;SDS011;45321;53.200;5.814;2024-01-30T03:22:04;28.88;;;22.75;;
59504;SDS011;45321;53.200;5.814;2024-01-30T03:24:30;26.58;;;22.10;;
59504;SDS011;45321;53.200;5.814;2024-01-30T03:26:56;25.33;;;20.73;;
59504;SDS011;45321;53.200;5.814;2024-01-30T03:29:21;25.98;;;21.17;;
59504;SDS011;45321;53.200;5.814;2024-01-30T03:31:47;29.65;;;23.42;;
59504;SDS011;45321;53.200;5.814;2024-01-30T03:34:13;32.10;;;22.42;;
59504;SDS011;45321;53.200;5.814;2024-01-30T03:36:39;28.33;;;20.77;;
59504;SDS011;45321;53.200;5.814;2024-01-30T03:39:04;28.55;;;21.70;;
59504;SDS011;45321;53.200;5.814;2024-01-30T03:41:31;33.42;;;23.08;;
59504;SDS011;45321;53.200;5.814;2024-01-30T03:43:57;28.75;;;22.55;;
59504;SDS011;45321;53.200;5.814;2024-01-30T03:46:23;32.22;;;23.25;;
59504;SDS011;45321;53.200;5.814;2024-01-30T03:48:49;26.17;;;21.63;;
59504;SDS011;45321;53.200;5.814;2024-01-30T03:51:15;26.45;;;22.50;;
59504;SDS011;45321;53.200;5.814;2024-01-30T03:53:41;28.63;;;22.58;;
59504;SDS011;45321;53.200;5.814;2024-01-30T03:56:08;29.50;;;22.38;;
59504;SDS011;45321;53.200;5.814;2024-01-30T03:58:33;29.05;;;21.33;;
59504;SDS011;45321;53.200;5.814;2024-01-30T04:01:01;29.10;;;22.48;;
59504;SDS011;45321;53.200;5.814;2024-01-30T04:03:27;26.83;;;21.63;;
59504;SDS011;45321;53.200;5.814;2024-01-30T04:05:53;27.83;;;21.27;;
59504;SDS011;45321;53.200;5.814;2024-01-30T04:08:19;30.08;;;22.83;;
59504;SDS011;45321;53.200;5.814;2024-01-30T04:10:44;35.28;;;21.58;;
59504;SDS011;45321;53.200;5.814;2024-01-30T04:13:11;26.88;;;20.98;;
59504;SDS011;45321;53.200;5.814;2024-01-30T04:15:37;28.17;;;21.25;;
59504;SDS011;45321;53.200;5.814;2024-01-30T04:18:02;25.80;;;20.52;;
59504;SDS011;45321;53.200;5.814;2024-01-30T04:20:29;24.17;;;19.98;;
59504;SDS011;45321;53.200;5.814;2024-01-30T04:22:55;27.27;;;21.67;;
59504;SDS011;45321;53.200;5.814;2024-01-30T04:25:20;25.40;;;21.27;;
59504;SDS011;45321;53.200;5.814;2024-01-30T04:27:47;24.30;;;20.13;;
59504;SDS011;45321;53.200;5.814;2024-01-30T04:30:13;24.77;;;19.98;;
59504;SDS011;45321;53.200;5.814;2024-01-30T04:32:38;28.25;;;21.60;;
59504;SDS011;45321;53.200;5.814;2024-01-30T04:35:04;29.35;;;20.05;;
59504;SDS011;45321;53.200;5.814;2024-01-30T04:37:30;23.98;;;19.40;;
59504;SDS011;45321;53.200;5.814;2024-01-30T04:39:56;27.65;;;20.50;;
59504;SDS011;45321;53.200;5.814;2024-01-30T04:42:22;25.60;;;18.98;;
59504;SDS011;45321;53.200;5.814;2024-01-30T04:44:48;26.95;;;19.73;;
59504;SDS011;45321;53.200;5.814;2024-01-30T04:47:14;27.92;;;20.75;;
59504;SDS011;45321;53.200;5.814;2024-01-30T04:49:40;26.13;;;20.23;;
59504;SDS011;45321;53.200;5.814;2024-01-30T04:52:06;24.23;;;19.55;;
59504;SDS011;45321;53.200;5.814;2024-01-30T04:54:32;26.33;;;19.45;;
59504;SDS011;45321;53.200;5.814;2024-01-30T04:56:58;26.98;;;18.42;;
59504;SDS011;45321;53.200;5.814;2024-01-30T04:59:24;26.35;;;19.45;;
59504;SDS011;45321;53.200;5.814;2024-01-30T05:01:50;23.92;;;17.63;;
59504;SDS011;45321;53.200;5.814;2024-01-30T05:04:16;25.85;;;19.20;;
59504;SDS011;45321;53.200;5.814;2024-01-30T05:06:41;23.92;;;19.45;;
59504;SDS011;45321;53.200;5.814;2024-01-30T05:09:07;24.85;;;18.80;;
59504;SDS011;45321;53.200;5.814;2024-01-30T05:11:40;26.30;;;19.23;;
59504;SDS011;45321;53.200;5.814;2024-01-30T05:14:07;21.38;;;17.63;;
59504;SDS011;45321;53.200;5.814;2024-01-30T05:16:33;27.13;;;18.48;;
59504;SDS011;45321;53.200;5.814;2024-01-30T05:18:59;23.33;;;19.35;;
59504;SDS011;45321;53.200;5.814;2024-01-30T05:21:25;23.58;;;18.35;;
59504;SDS011;45321;53.200;5.814;2024-01-30T05:23:51;22.70;;;19.08;;
59504;SDS011;45321;53.200;5.814;2024-01-30T05:26:16;25.48;;;19.70;;
59504;SDS011;45321;53.200;5.814;2024-01-30T05:28:43;26.45;;;19.00;;
59504;SDS011;45321;53.200;5.814;2024-01-30T05:31:11;32.35;;;21.50;;
59504;SDS011;45321;53.200;5.814;2024-01-30T05:33:37;27.52;;;21.00;;
59504;SDS011;45321;53.200;5.814;2024-01-30T05:36:03;26.52;;;19.75;;
59504;SDS011;45321;53.200;5.814;2024-01-30T05:38:29;22.58;;;18.25;;
59504;SDS011;45321;53.200;5.814;2024-01-30T05:40:58;21.98;;;17.92;;
59504;SDS011;45321;53.200;5.814;2024-01-30T05:43:24;24.02;;;17.83;;
59504;SDS011;45321;53.200;5.814;2024-01-30T05:45:50;22.52;;;17.73;;
59504;SDS011;45321;53.200;5.814;2024-01-30T05:48:17;26.88;;;18.70;;
59504;SDS011;45321;53.200;5.814;2024-01-30T05:50:43;25.35;;;18.05;;
59504;SDS011;45321;53.200;5.814;2024-01-30T05:53:10;25.17;;;18.55;;
59504;SDS011;45321;53.200;5.814;2024-01-30T05:55:36;24.40;;;18.40;;
59504;SDS011;45321;53.200;5.814;2024-01-30T05:58:02;23.20;;;17.75;;
59504;SDS011;45321;53.200;5.814;2024-01-30T06:00:29;23.40;;;17.73;;
59504;SDS011;45321;53.200;5.814;2024-01-30T06:02:55;22.27;;;17.65;;
59504;SDS011;45321;53.200;5.814;2024-01-30T06:05:20;24.60;;;18.25;;
59504;SDS011;45321;53.200;5.814;2024-01-30T06:07:46;25.15;;;17.95;;
59504;SDS011;45321;53.200;5.814;2024-01-30T06:10:12;28.60;;;20.65;;
59504;SDS011;45321;53.200;5.814;2024-01-30T06:12:37;24.08;;;18.70;;
59504;SDS011;45321;53.200;5.814;2024-01-30T06:15:03;22.83;;;18.00;;
59504;SDS011;45321;53.200;5.814;2024-01-30T06:17:29;23.38;;;16.83;;
59504;SDS011;45321;53.200;5.814;2024-01-30T06:19:55;20.27;;;17.08;;
59504;SDS011;45321;53.200;5.814;2024-01-30T06:22:21;26.45;;;17.90;;
59504;SDS011;45321;53.200;5.814;2024-01-30T06:24:47;26.58;;;18.02;;
59504;SDS011;45321;53.200;5.814;2024-01-30T06:27:15;20.60;;;16.73;;
59504;SDS011;45321;53.200;5.814;2024-01-30T06:29:43;22.42;;;16.52;;
59504;SDS011;45321;53.200;5.814;2024-01-30T06:32:09;21.25;;;17.13;;
59504;SDS011;45321;53.200;5.814;2024-01-30T06:34:35;21.23;;;17.00;;
59504;SDS011;45321;53.200;5.814;2024-01-30T06:37:01;21.45;;;17.33;;
59504;SDS011;45321;53.200;5.814;2024-01-30T06:39:27;22.42;;;16.48;;
59504;SDS011;45321;53.200;5.814;2024-01-30T06:41:52;22.45;;;16.55;;
59504;SDS011;45321;53.200;5.814;2024-01-30T06:44:18;20.48;;;17.02;;
59504;SDS011;45321;53.200;5.814;2024-01-30T06:46:44;22.88;;;17.27;;
59504;SDS011;45321;53.200;5.814;2024-01-30T06:49:10;23.88;;;16.83;;
59504;SDS011;45321;53.200;5.814;2024-01-30T06:51:35;22.63;;;16.65;;
59504;SDS011;45321;53.200;5.814;2024-01-30T06:54:01;22.02;;;16.27;;
59504;SDS011;45321;53.200;5.814;2024-01-30T06:56:27;23.75;;;17.75;;
59504;SDS011;45321;53.200;5.814;2024-01-30T06:58:53;24.40;;;16.58;;
59504;SDS011;45321;53.200;5.814;2024-01-30T07:01:19;23.40;;;16.98;;
59504;SDS011;45321;53.200;5.814;2024-01-30T07:03:46;22.17;;;17.15;;
59504;SDS011;45321;53.200;5.814;2024-01-30T07:06:11;20.73;;;16.55;;
59504;SDS011;45321;53.200;5.814;2024-01-30T07:08:37;23.40;;;16.58;;
59504;SDS011;45321;53.200;5.814;2024-01-30T07:11:06;24.40;;;17.50;;
59504;SDS011;45321;53.200;5.814;2024-01-30T07:13:33;23.08;;;16.50;;
59504;SDS011;45321;53.200;5.814;2024-01-30T07:15:59;21.05;;;17.77;;
59504;SDS011;45321;53.200;5.814;2024-01-30T07:18:25;22.65;;;16.63;;
59504;SDS011;45321;53.200;5.814;2024-01-30T07:20:51;25.10;;;17.73;;
59504;SDS011;45321;53.200;5.814;2024-01-30T07:23:17;23.55;;;17.38;;
59504;SDS011;45321;53.200;5.814;2024-01-30T07:25:43;23.60;;;17.92;;
59504;SDS011;45321;53.200;5.814;2024-01-30T07:28:10;25.10;;;16.83;;
59504;SDS011;45321;53.200;5.814;2024-01-30T07:30:37;24.48;;;17.38;;
59504;SDS011;45321;53.200;5.814;2024-01-30T07:33:03;21.73;;;16.35;;
59504;SDS011;45321;53.200;5.814;2024-01-30T07:35:29;21.73;;;16.42;;
59504;SDS011;45321;53.200;5.814;2024-01-30T07:37:54;19.17;;;16.25;;
59504;SDS011;45321;53.200;5.814;2024-01-30T07:40:20;21.00;;;16.85;;
59504;SDS011;45321;53.200;5.814;2024-01-30T07:42:46;23.00;;;16.67;;
59504;SDS011;45321;53.200;5.814;2024-01-30T07:45:13;18.63;;;15.55;;
59504;SDS011;45321;53.200;5.814;2024-01-30T07:47:39;21.92;;;15.15;;
59504;SDS011;45321;53.200;5.814;2024-01-30T07:50:04;46.30;;;25.50;;
59504;SDS011;45321;53.200;5.814;2024-01-30T07:52:31;264.63;;;104.30;;
59504;SDS011;45321;53.200;5.814;2024-01-30T07:54:57;24.98;;;18.63;;
59504;SDS011;45321;53.200;5.814;2024-01-30T07:57:23;21.52;;;16.38;;
59504;SDS011;45321;53.200;5.814;2024-01-30T07:59:48;23.75;;;16.80;;
59504;SDS011;45321;53.200;5.814;2024-01-30T08:02:14;20.92;;;15.65;;
59504;SDS011;45321;53.200;5.814;2024-01-30T08:04:40;18.88;;;15.57;;
59504;SDS011;45321;53.200;5.814;2024-01-30T08:07:05;22.17;;;15.90;;
59504;SDS011;45321;53.200;5.814;2024-01-30T08:09:31;23.40;;;16.20;;
59504;SDS011;45321;53.200;5.814;2024-01-30T08:11:57;21.35;;;16.05;;
59504;SDS011;45321;53.200;5.814;2024-01-30T08:14:22;19.30;;;15.63;;
59504;SDS011;45321;53.200;5.814;2024-01-30T08:16:48;22.50;;;16.77;;
59504;SDS011;45321;53.200;5.814;2024-01-30T08:19:14;19.55;;;15.68;;
59504;SDS011;45321;53.200;5.814;2024-01-30T08:21:40;25.08;;;16.35;;
59504;SDS011;45321;53.200;5.814;2024-01-30T08:24:06;20.92;;;15.80;;
59504;SDS011;45321;53.200;5.814;2024-01-30T08:26:32;21.02;;;15.73;;
59504;SDS011;45321;53.200;5.814;2024-01-30T08:28:58;20.23;;;14.95;;
59504;SDS011;45321;53.200;5.814;2024-01-30T08:31:24;21.88;;;17.00;;
59504;SDS011;45321;53.200;5.814;2024-01-30T08:33:50;23.95;;;15.75;;
59504;SDS011;45321;53.200;5.814;2024-01-30T08:36:16;23.08;;;15.15;;
59504;SDS011;45321;53.200;5.814;2024-01-30T08:38:42;19.63;;;14.18;;
59504;SDS011;45321;53.200;5.814;2024-01-30T08:41:08;23.75;;;14.82;;
59504;SDS011;45321;53.200;5.814;2024-01-30T08:43:34;22.50;;;14.48;;
59504;SDS011;45321;53.200;5.814;2024-01-30T08:46:00;21.30;;;14.35;;
59504;SDS011;45321;53.200;5.814;2024-01-30T08:48:26;39.95;;;25.05;;
59504;SDS011;45321;53.200;5.814;2024-01-30T08:50:52;73.03;;;40.95;;
59504;SDS011;45321;53.200;5.814;2024-01-30T08:53:18;65.82;;;36.75;;
59504;SDS011;45321;53.200;5.814;2024-01-30T08:55:43;53.72;;;28.48;;
59504;SDS011;45321;53.200;5.814;2024-01-30T08:58:09;34.47;;;23.83;;
59504;SDS011;45321;53.200;5.814;2024-01-30T09:00:35;25.55;;;17.17;;
59504;SDS011;45321;53.200;5.814;2024-01-30T09:03:01;26.45;;;19.58;;
59504;SDS011;45321;53.200;5.814;2024-01-30T09:05:28;31.10;;;25.55;;
59504;SDS011;45321;53.200;5.814;2024-01-30T09:07:54;22.00;;;16.50;;
59504;SDS011;45321;53.200;5.814;2024-01-30T09:10:19;26.13;;;16.48;;
59504;SDS011;45321;53.200;5.814;2024-01-30T09:12:46;21.65;;;15.30;;
59504;SDS011;45321;53.200;5.814;2024-01-30T09:15:11;21.40;;;15.18;;
59504;SDS011;45321;53.200;5.814;2024-01-30T09:17:37;22.52;;;14.27;;
59504;SDS011;45321;53.200;5.814;2024-01-30T09:20:04;18.75;;;13.48;;
59504;SDS011;45321;53.200;5.814;2024-01-30T09:22:30;23.27;;;13.75;;
59504;SDS011;45321;53.200;5.814;2024-01-30T09:24:56;19.00;;;13.32;;
59504;SDS011;45321;53.200;5.814;2024-01-30T09:27:22;18.10;;;13.50;;
59504;SDS011;45321;53.200;5.814;2024-01-30T09:29:48;20.20;;;14.68;;
59504;SDS011;45321;53.200;5.814;2024-01-30T09:32:14;22.55;;;14.43;;
59504;SDS011;45321;53.200;5.814;2024-01-30T09:34:40;22.88;;;14.50;;
59504;SDS011;45321;53.200;5.814;2024-01-30T09:37:06;20.77;;;14.60;;
59504;SDS011;45321;53.200;5.814;2024-01-30T09:39:32;25.65;;;15.10;;
59504;SDS011;45321;53.200;5.814;2024-01-30T09:44:35;20.13;;;13.65;;
59504;SDS011;45321;53.200;5.814;2024-01-30T09:47:03;19.42;;;13.43;;
59504;SDS011;45321;53.200;5.814;2024-01-30T09:49:34;18.77;;;14.18;;
59504;SDS011;45321;53.200;5.814;2024-01-30T09:52:02;19.73;;;13.30;;
59504;SDS011;45321;53.200;5.814;2024-01-30T09:54:30;20.30;;;12.13;;
59504;SDS011;45321;53.200;5.814;2024-01-30T09:56:56;17.38;;;12.18;;
59504;SDS011;45321;53.200;5.814;2024-01-30T09:59:23;19.35;;;12.20;;
59504;SDS011;45321;53.200;5.814;2024-01-30T10:01:49;17.25;;;11.55;;
59504;SDS011;45321;53.200;5.814;2024-01-30T10:04:16;19.42;;;11.90;;
59504;SDS011;45321;53.200;5.814;2024-01-30T10:06:42;18.77;;;11.80;;
59504;SDS011;45321;53.200;5.814;2024-01-30T10:09:07;16.60;;;11.60;;
59504;SDS011;45321;53.200;5.814;2024-01-30T10:11:34;21.83;;;11.98;;
59504;SDS011;45321;53.200;5.814;2024-01-30T10:14:01;20.85;;;10.77;;
59504;SDS011;45321;53.200;5.814;2024-01-30T10:16:27;16.17;;;10.82;;
59504;SDS011;45321;53.200;5.814;2024-01-30T10:18:53;21.25;;;10.77;;
59504;SDS011;45321;53.200;5.814;2024-01-30T10:21:24;20.08;;;11.43;;
59504;SDS011;45321;53.200;5.814;2024-01-30T10:23:50;20.23;;;9.98;;
59504;SDS011;45321;53.200;5.814;2024-01-30T10:26:16;20.17;;;9.45;;
59504;SDS011;45321;53.200;5.814;2024-01-30T10:28:42;16.83;;;8.50;;
59504;SDS011;45321;53.200;5.814;2024-01-30T10:31:08;19.60;;;7.85;;
59504;SDS011;45321;53.200;5.814;2024-01-30T10:33:34;19.15;;;8.10;;
59504;SDS011;45321;53.200;5.814;2024-01-30T10:36:00;15.85;;;7.60;;
59504;SDS011;45321;53.200;5.814;2024-01-30T10:38:31;16.63;;;6.63;;
59504;SDS011;45321;53.200;5.814;2024-01-30T10:40:57;18.13;;;6.53;;
59504;SDS011;45321;53.200;5.814;2024-01-30T10:43:31;16.17;;;5.93;;
59504;SDS011;45321;53.200;5.814;2024-01-30T10:46:18;18.27;;;5.70;;
59504;SDS011;45321;53.200;5.814;2024-01-30T10:48:46;22.98;;;5.60;;
59504;SDS011;45321;53.200;5.814;2024-01-30T10:51:24;21.33;;;5.75;;
59504;SDS011;45321;53.200;5.814;2024-01-30T10:53:51;16.25;;;5.20;;
59504;SDS011;45321;53.200;5.814;2024-01-30T10:56:22;23.02;;;6.28;;
59504;SDS011;45321;53.200;5.814;2024-01-30T10:58:51;14.32;;;4.03;;
59504;SDS011;45321;53.200;5.814;2024-01-30T11:01:21;10.50;;;3.28;;
59504;SDS011;45321;53.200;5.814;2024-01-30T11:03:51;7.68;;;2.72;;
59504;SDS011;45321;53.200;5.814;2024-01-30T11:06:18;9.82;;;2.60;;
59504;SDS011;45321;53.200;5.814;2024-01-30T11:08:59;6.90;;;2.20;;
59504;SDS011;45321;53.200;5.814;2024-01-30T11:11:28;8.98;;;2.40;;
59504;SDS011;45321;53.200;5.814;2024-01-30T11:13:53;9.80;;;2.55;;
59504;SDS011;45321;53.200;5.814;2024-01-30T11:16:19;11.18;;;3.30;;
59504;SDS011;45321;53.200;5.814;2024-01-30T11:18:49;13.02;;;2.97;;
59504;SDS011;45321;53.200;5.814;2024-01-30T11:21:16;8.48;;;2.25;;
59504;SDS011;45321;53.200;5.814;2024-01-30T11:23:42;8.50;;;2.03;;
59504;SDS011;45321;53.200;5.814;2024-01-30T11:26:10;10.82;;;2.08;;
59504;SDS011;45321;53.200;5.814;2024-01-30T11:28:36;9.00;;;2.97;;
59504;SDS011;45321;53.200;5.814;2024-01-30T11:31:06;11.55;;;2.50;;
59504;SDS011;45321;53.200;5.814;2024-01-30T11:33:32;9.43;;;2.33;;
59504;SDS011;45321;53.200;5.814;2024-01-30T11:35:59;10.80;;;2.30;;
59504;SDS011;45321;53.200;5.814;2024-01-30T11:38:26;10.85;;;3.05;;
59504;SDS011;45321;53.200;5.814;2024-01-30T11:40:55;9.68;;;2.42;;
59504;SDS011;45321;53.200;5.814;2024-01-30T11:43:23;10.50;;;2.75;;
59504;SDS011;45321;53.200;5.814;2024-01-30T11:45:50;9.38;;;3.22;;
59504;SDS011;45321;53.200;5.814;2024-01-30T11:48:16;11.90;;;2.53;;
59504;SDS011;45321;53.200;5.814;2024-01-30T11:50:42;9.15;;;2.42;;
59504;SDS011;45321;53.200;5.814;2024-01-30T11:53:11;11.75;;;3.22;;
59504;SDS011;45321;53.200;5.814;2024-01-30T11:55:37;11.20;;;2.95;;
59504;SDS011;45321;53.200;5.814;2024-01-30T11:58:03;13.10;;;3.55;;
59504;SDS011;45321;53.200;5.814;2024-01-30T12:00:29;11.93;;;3.20;;
59504;SDS011;45321;53.200;5.814;2024-01-30T12:02:58;8.40;;;2.67;;
59504;SDS011;45321;53.200;5.814;2024-01-30T12:05:25;9.48;;;2.92;;
59504;SDS011;45321;53.200;5.814;2024-01-30T12:07:51;8.00;;;2.20;;
59504;SDS011;45321;53.200;5.814;2024-01-30T12:10:17;10.77;;;2.67;;
59504;SDS011;45321;53.200;5.814;2024-01-30T12:12:45;16.10;;;3.95;;
59504;SDS011;45321;53.200;5.814;2024-01-30T12:15:12;11.48;;;2.70;;
59504;SDS011;45321;53.200;5.814;2024-01-30T12:17:39;9.82;;;2.47;;
59504;SDS011;45321;53.200;5.814;2024-01-30T12:20:05;7.22;;;2.40;;
59504;SDS011;45321;53.200;5.814;2024-01-30T12:22:36;10.43;;;2.75;;
59504;SDS011;45321;53.200;5.814;2024-01-30T12:25:09;10.10;;;2.67;;
59504;SDS011;45321;53.200;5.814;2024-01-30T12:27:36;8.32;;;2.33;;
59504;SDS011;45321;53.200;5.814;2024-01-30T12:30:06;13.82;;;3.15;;
59504;SDS011;45321;53.200;5.814;2024-01-30T12:32:35;9.43;;;2.58;;
59504;SDS011;45321;53.200;5.814;2024-01-30T12:35:02;13.00;;;3.45;;
59504;SDS011;45321;53.200;5.814;2024-01-30T12:37:29;10.10;;;2.67;;
59504;SDS011;45321;53.200;5.814;2024-01-30T12:39:55;6.85;;;2.40;;
59504;SDS011;45321;53.200;5.814;2024-01-30T12:42:21;11.63;;;3.25;;
59504;SDS011;45321;53.200;5.814;2024-01-30T12:44:48;8.80;;;2.38;;
59504;SDS011;45321;53.200;5.814;2024-01-30T12:47:14;6.35;;;2.25;;
59504;SDS011;45321;53.200;5.814;2024-01-30T12:49:43;9.70;;;2.22;;
59504;SDS011;45321;53.200;5.814;2024-01-30T12:52:13;10.07;;;2.67;;
59504;SDS011;45321;53.200;5.814;2024-01-30T12:54:41;5.72;;;1.80;;
59504;SDS011;45321;53.200;5.814;2024-01-30T12:57:06;7.60;;;2.10;;
59504;SDS011;45321;53.200;5.814;2024-01-30T12:59:32;5.45;;;2.00;;
59504;SDS011;45321;53.200;5.814;2024-01-30T13:01:59;8.40;;;2.75;;
59504;SDS011;45321;53.200;5.814;2024-01-30T13:04:26;9.50;;;2.53;;
59504;SDS011;45321;53.200;5.814;2024-01-30T13:06:52;9.80;;;3.22;;
59504;SDS011;45321;53.200;5.814;2024-01-30T13:09:18;7.88;;;2.90;;
59504;SDS011;45321;53.200;5.814;2024-01-30T13:11:44;7.70;;;3.00;;
59504;SDS011;45321;53.200;5.814;2024-01-30T13:14:10;9.90;;;4.80;;
59504;SDS011;45321;53.200;5.814;2024-01-30T13:16:36;8.60;;;2.72;;
59504;SDS011;45321;53.200;5.814;2024-01-30T13:19:02;7.78;;;2.67;;
59504;SDS011;45321;53.200;5.814;2024-01-30T13:21:29;7.28;;;2.40;;
59504;SDS011;45321;53.200;5.814;2024-01-30T13:23:54;9.15;;;2.80;;
59504;SDS011;45321;53.200;5.814;2024-01-30T13:26:20;6.30;;;3.22;;
59504;SDS011;45321;53.200;5.814;2024-01-30T13:28:47;6.72;;;2.92;;
59504;SDS011;45321;53.200;5.814;2024-01-30T13:31:13;11.10;;;3.60;;
59504;SDS011;45321;53.200;5.814;2024-01-30T13:33:40;7.55;;;2.78;;
59504;SDS011;45321;53.200;5.814;2024-01-30T13:36:06;10.00;;;2.90;;
59504;SDS011;45321;53.200;5.814;2024-01-30T13:38:33;7.45;;;3.60;;
59504;SDS011;45321;53.200;5.814;2024-01-30T13:40:59;9.70;;;3.22;;
59504;SDS011;45321;53.200;5.814;2024-01-30T13:43:25;11.57;;;3.72;;
59504;SDS011;45321;53.200;5.814;2024-01-30T13:45:51;14.50;;;3.70;;
59504;SDS011;45321;53.200;5.814;2024-01-30T13:48:17;11.20;;;4.20;;
59504;SDS011;45321;53.200;5.814;2024-01-30T13:50:43;10.80;;;4.00;;
59504;SDS011;45321;53.200;5.814;2024-01-30T13:53:08;9.00;;;3.60;;
59504;SDS011;45321;53.200;5.814;2024-01-30T13:55:35;12.63;;;4.80;;
59504;SDS011;45321;53.200;5.814;2024-01-30T13:58:01;9.55;;;4.05;;
59504;SDS011;45321;53.200;5.814;2024-01-30T14:00:27;18.35;;;4.57;;
59504;SDS011;45321;53.200;5.814;2024-01-30T14:02:52;9.82;;;3.50;;
59504;SDS011;45321;53.200;5.814;2024-01-30T14:05:23;8.55;;;3.83;;
59504;SDS011;45321;53.200;5.814;2024-01-30T14:07:49;12.95;;;4.00;;
59504;SDS011;45321;53.200;5.814;2024-01-30T14:10:16;9.30;;;4.20;;
59504;SDS011;45321;53.200;5.814;2024-01-30T14:12:42;9.90;;;3.35;;
59504;SDS011;45321;53.200;5.814;2024-01-30T14:15:13;10.48;;;3.35;;
59504;SDS011;45321;53.200;5.814;2024-01-30T14:17:40;14.25;;;3.33;;
59504;SDS011;45321;53.200;5.814;2024-01-30T14:20:06;12.35;;;3.95;;
59504;SDS011;45321;53.200;5.814;2024-01-30T14:22:36;9.00;;;3.13;;
59504;SDS011;45321;53.200;5.814;2024-01-30T14:25:01;11.98;;;3.60;;